sensor_id;sensor_type;location;lat;lon;timestamp;P1;durP1;ratioP1;P2;durP2;ratioP2
16480;SDS011;44634;54.110;12.138;2023-03-14T00:02:26;2.03;;;1.93;;
16480;SDS011;44634;54.110;12.138;2023-03-14T00:04:54;2.10;;;1.90;;
16480;SDS011;44634;54.110;12.138;2023-03-14T00:07:22;1.80;;;1.80;;
16480;SDS011;44634;54.110;12.138;2023-03-14T00:09:51;2.97;;;1.80;;
16480;SDS011;44634;54.110;12.138;2023-03-14T00:12:19;1.70;;;1.70;;
16480;SDS011;44634;54.110;12.138;2023-03-14T00:14:48;1.93;;;1.83;;
16480;SDS011;44634;54.110;12.138;2023-03-14T00:17:16;3.47;;;1.90;;
16480;SDS011;44634;54.110;12.138;2023-03-14T00:19:44;2.63;;;1.87;;
16480;SDS011;44634;54.110;12.138;2023-03-14T00:22:11;2.00;;;1.90;;
16480;SDS011;44634;54.110;12.138;2023-03-14T00:24:39;2.40;;;2.00;;
16480;SDS011;44634;54.110;12.138;2023-03-14T00:27:07;2.70;;;2.13;;
16480;SDS011;44634;54.110;12.138;2023-03-14T00:29:35;2.20;;;1.90;;
16480;SDS011;44634;54.110;12.138;2023-03-14T00:32:04;2.43;;;2.00;;
16480;SDS011;44634;54.110;12.138;2023-03-14T00:34:32;2.20;;;2.10;;
16480;SDS011;44634;54.110;12.138;2023-03-14T00:37:00;2.70;;;2.00;;
16480;SDS011;44634;54.110;12.138;2023-03-14T00:39:28;2.20;;;2.10;;
16480;SDS011;44634;54.110;12.138;2023-03-14T00:41:55;2.20;;;2.10;;
16480;SDS011;44634;54.110;12.138;2023-03-14T00:44:23;2.63;;;1.90;;
16480;SDS011;44634;54.110;12.138;2023-03-14T00:46:51;2.00;;;1.90;;
16480;SDS011;44634;54.110;12.138;2023-03-14T00:49:20;1.80;;;1.70;;
16480;SDS011;44634;54.110;12.138;2023-03-14T00:51:48;3.00;;;1.73;;
16480;SDS011;44634;54.110;12.138;2023-03-14T00:54:17;1.90;;;1.80;;
16480;SDS011;44634;54.110;12.138;2023-03-14T00:56:45;2.60;;;1.80;;
16480;SDS011;44634;54.110;12.138;2023-03-14T00:59:13;2.60;;;2.00;;
16480;SDS011;44634;54.110;12.138;2023-03-14T01:01:42;2.70;;;2.10;;
16480;SDS011;44634;54.110;12.138;2023-03-14T01:04:11;1.90;;;1.80;;
16480;SDS011;44634;54.110;12.138;2023-03-14T01:06:40;3.57;;;2.00;;
16480;SDS011;44634;54.110;12.138;2023-03-14T01:09:08;1.90;;;1.80;;
16480;SDS011;44634;54.110;12.138;2023-03-14T01:11:35;2.83;;;1.80;;
16480;SDS011;44634;54.110;12.138;2023-03-14T01:14:03;2.47;;;2.13;;
16480;SDS011;44634;54.110;12.138;2023-03-14T01:16:33;1.97;;;1.87;;
16480;SDS011;44634;54.110;12.138;2023-03-14T01:19:02;2.10;;;1.40;;
16480;SDS011;44634;54.110;12.138;2023-03-14T01:21:31;1.90;;;1.80;;
16480;SDS011;44634;54.110;12.138;2023-03-14T01:24:02;2.87;;;1.80;;
16480;SDS011;44634;54.110;12.138;2023-03-14T01:26:32;2.90;;;1.93;;
16480;SDS011;44634;54.110;12.138;2023-03-14T01:29:00;1.73;;;1.70;;
16480;SDS011;44634;54.110;12.138;2023-03-14T01:31:29;1.57;;;1.57;;
16480;SDS011;44634;54.110;12.138;2023-03-14T01:33:57;1.93;;;1.87;;
16480;SDS011;44634;54.110;12.138;2023-03-14T01:36:25;2.23;;;1.90;;
16480;SDS011;44634;54.110;12.138;2023-03-14T01:38:55;3.33;;;1.83;;
16480;SDS011;44634;54.110;12.138;2023-03-14T01:41:25;1.80;;;1.70;;
16480;SDS011;44634;54.110;12.138;2023-03-14T01:43:53;2.73;;;1.80;;
16480;SDS011;44634;54.110;12.138;2023-03-14T01:49:09;1.67;;;1.60;;
16480;SDS011;44634;54.110;12.138;2023-03-14T01:51:43;2.00;;;1.90;;
16480;SDS011;44634;54.110;12.138;2023-03-14T01:54:16;2.20;;;2.00;;
16480;SDS011;44634;54.110;12.138;2023-03-14T01:56:50;2.60;;;1.80;;
16480;SDS011;44634;54.110;12.138;2023-03-14T01:59:22;2.57;;;2.10;;
16480;SDS011;44634;54.110;12.138;2023-03-14T02:01:51;2.73;;;1.90;;
16480;SDS011;44634;54.110;12.138;2023-03-14T02:04:21;2.73;;;2.10;;
16480;SDS011;44634;54.110;12.138;2023-03-14T02:06:51;2.67;;;2.07;;
16480;SDS011;44634;54.110;12.138;2023-03-14T02:09:23;6.63;;;2.57;;
16480;SDS011;44634;54.110;12.138;2023-03-14T02:11:52;2.27;;;2.07;;
16480;SDS011;44634;54.110;12.138;2023-03-14T02:14:26;4.87;;;2.10;;
16480;SDS011;44634;54.110;12.138;2023-03-14T02:16:57;2.23;;;1.90;;
16480;SDS011;44634;54.110;12.138;2023-03-14T02:19:28;1.83;;;1.83;;
16480;SDS011;44634;54.110;12.138;2023-03-14T02:22:07;2.00;;;1.90;;
16480;SDS011;44634;54.110;12.138;2023-03-14T02:24:39;2.07;;;1.97;;
16480;SDS011;44634;54.110;12.138;2023-03-14T02:27:13;1.80;;;1.70;;
16480;SDS011;44634;54.110;12.138;2023-03-14T02:29:45;2.67;;;1.73;;
16480;SDS011;44634;54.110;12.138;2023-03-14T02:32:18;3.53;;;1.93;;
16480;SDS011;44634;54.110;12.138;2023-03-14T02:34:49;2.33;;;2.23;;
16480;SDS011;44634;54.110;12.138;2023-03-14T02:37:22;2.20;;;2.10;;
16480;SDS011;44634;54.110;12.138;2023-03-14T02:39:54;2.50;;;1.90;;
16480;SDS011;44634;54.110;12.138;2023-03-14T02:42:23;3.40;;;2.33;;
16480;SDS011;44634;54.110;12.138;2023-03-14T02:44:51;4.87;;;2.00;;
16480;SDS011;44634;54.110;12.138;2023-03-14T02:47:22;2.67;;;2.07;;
16480;SDS011;44634;54.110;12.138;2023-03-14T02:49:56;2.10;;;1.93;;
16480;SDS011;44634;54.110;12.138;2023-03-14T02:52:29;2.17;;;2.07;;
16480;SDS011;44634;54.110;12.138;2023-03-14T02:54:57;2.13;;;1.90;;
16480;SDS011;44634;54.110;12.138;2023-03-14T02:57:26;4.23;;;1.93;;
16480;SDS011;44634;54.110;12.138;2023-03-14T02:59:54;3.63;;;2.10;;
16480;SDS011;44634;54.110;12.138;2023-03-14T03:02:25;2.70;;;2.27;;
16480;SDS011;44634;54.110;12.138;2023-03-14T03:04:53;2.80;;;2.33;;
16480;SDS011;44634;54.110;12.138;2023-03-14T03:07:21;2.27;;;2.17;;
16480;SDS011;44634;54.110;12.138;2023-03-14T03:09:49;3.03;;;2.13;;
16480;SDS011;44634;54.110;12.138;2023-03-14T03:12:17;3.87;;;2.13;;
16480;SDS011;44634;54.110;12.138;2023-03-14T03:14:46;2.90;;;2.13;;
16480;SDS011;44634;54.110;12.138;2023-03-14T03:17:14;2.23;;;2.00;;
16480;SDS011;44634;54.110;12.138;2023-03-14T03:19:42;2.73;;;2.27;;
16480;SDS011;44634;54.110;12.138;2023-03-14T03:22:09;3.90;;;1.73;;
16480;SDS011;44634;54.110;12.138;2023-03-14T03:24:37;2.70;;;2.10;;
16480;SDS011;44634;54.110;12.138;2023-03-14T03:27:05;7.07;;;2.33;;
16480;SDS011;44634;54.110;12.138;2023-03-14T03:29:33;3.60;;;2.27;;
16480;SDS011;44634;54.110;12.138;2023-03-14T03:32:02;3.97;;;2.33;;
16480;SDS011;44634;54.110;12.138;2023-03-14T03:34:30;3.60;;;1.80;;
16480;SDS011;44634;54.110;12.138;2023-03-14T03:36:58;2.63;;;2.13;;
16480;SDS011;44634;54.110;12.138;2023-03-14T03:39:26;3.97;;;2.00;;
16480;SDS011;44634;54.110;12.138;2023-03-14T03:41:53;3.03;;;2.10;;
16480;SDS011;44634;54.110;12.138;2023-03-14T03:44:21;2.83;;;1.90;;
16480;SDS011;44634;54.110;12.138;2023-03-14T03:46:49;2.40;;;2.20;;
16480;SDS011;44634;54.110;12.138;2023-03-14T03:49:18;3.07;;;2.20;;
16480;SDS011;44634;54.110;12.138;2023-03-14T03:51:46;2.97;;;2.13;;
16480;SDS011;44634;54.110;12.138;2023-03-14T03:54:14;4.20;;;2.03;;
16480;SDS011;44634;54.110;12.138;2023-03-14T03:56:41;4.23;;;2.20;;
16480;SDS011;44634;54.110;12.138;2023-03-14T03:59:09;5.90;;;2.37;;
16480;SDS011;44634;54.110;12.138;2023-03-14T04:01:37;2.80;;;2.53;;
16480;SDS011;44634;54.110;12.138;2023-03-14T04:04:05;2.70;;;1.57;;
16480;SDS011;44634;54.110;12.138;2023-03-14T04:06:35;4.87;;;2.00;;
16480;SDS011;44634;54.110;12.138;2023-03-14T04:09:02;4.60;;;2.00;;
16480;SDS011;44634;54.110;12.138;2023-03-14T04:11:30;2.53;;;1.87;;
16480;SDS011;44634;54.110;12.138;2023-03-14T04:13:58;2.37;;;2.17;;
16480;SDS011;44634;54.110;12.138;2023-03-14T04:16:26;4.77;;;2.10;;
16480;SDS011;44634;54.110;12.138;2023-03-14T04:18:54;6.47;;;2.20;;
16480;SDS011;44634;54.110;12.138;2023-03-14T04:21:21;4.53;;;2.90;;
16480;SDS011;44634;54.110;12.138;2023-03-14T04:23:50;2.87;;;2.20;;
16480;SDS011;44634;54.110;12.138;2023-03-14T04:26:18;3.63;;;1.80;;
16480;SDS011;44634;54.110;12.138;2023-03-14T04:28:46;4.17;;;2.20;;
16480;SDS011;44634;54.110;12.138;2023-03-14T04:31:15;3.77;;;2.20;;
16480;SDS011;44634;54.110;12.138;2023-03-14T04:33:44;3.77;;;2.07;;
16480;SDS011;44634;54.110;12.138;2023-03-14T04:36:13;2.57;;;1.73;;
16480;SDS011;44634;54.110;12.138;2023-03-14T04:38:41;1.93;;;1.80;;
16480;SDS011;44634;54.110;12.138;2023-03-14T04:41:10;1.97;;;1.87;;
16480;SDS011;44634;54.110;12.138;2023-03-14T04:43:38;2.60;;;2.40;;
16480;SDS011;44634;54.110;12.138;2023-03-14T04:46:06;2.83;;;2.30;;
16480;SDS011;44634;54.110;12.138;2023-03-14T04:48:34;4.50;;;2.13;;
16480;SDS011;44634;54.110;12.138;2023-03-14T04:51:04;4.27;;;2.00;;
16480;SDS011;44634;54.110;12.138;2023-03-14T04:53:32;2.90;;;1.90;;
16480;SDS011;44634;54.110;12.138;2023-03-14T04:56:00;3.80;;;2.20;;
16480;SDS011;44634;54.110;12.138;2023-03-14T04:58:29;2.60;;;2.17;;
16480;SDS011;44634;54.110;12.138;2023-03-14T05:01:01;3.43;;;2.43;;
16480;SDS011;44634;54.110;12.138;2023-03-14T05:03:29;3.67;;;2.40;;
16480;SDS011;44634;54.110;12.138;2023-03-14T05:05:57;3.00;;;1.90;;
16480;SDS011;44634;54.110;12.138;2023-03-14T05:08:27;2.53;;;1.80;;
16480;SDS011;44634;54.110;12.138;2023-03-14T05:10:54;2.30;;;1.90;;
16480;SDS011;44634;54.110;12.138;2023-03-14T05:13:23;2.13;;;1.93;;
16480;SDS011;44634;54.110;12.138;2023-03-14T05:15:52;1.80;;;1.70;;
16480;SDS011;44634;54.110;12.138;2023-03-14T05:18:21;3.13;;;2.03;;
16480;SDS011;44634;54.110;12.138;2023-03-14T05:20:50;6.20;;;2.00;;
16480;SDS011;44634;54.110;12.138;2023-03-14T05:23:18;2.20;;;2.10;;
16480;SDS011;44634;54.110;12.138;2023-03-14T05:25:46;2.43;;;2.03;;
16480;SDS011;44634;54.110;12.138;2023-03-14T05:28:13;2.33;;;1.77;;
16480;SDS011;44634;54.110;12.138;2023-03-14T05:30:41;3.63;;;2.00;;
16480;SDS011;44634;54.110;12.138;2023-03-14T05:33:10;3.00;;;2.20;;
16480;SDS011;44634;54.110;12.138;2023-03-14T05:35:38;2.00;;;1.90;;
16480;SDS011;44634;54.110;12.138;2023-03-14T05:38:06;2.57;;;2.37;;
16480;SDS011;44634;54.110;12.138;2023-03-14T05:40:33;4.07;;;2.03;;
16480;SDS011;44634;54.110;12.138;2023-03-14T05:43:01;4.00;;;2.17;;
16480;SDS011;44634;54.110;12.138;2023-03-14T05:45:29;2.10;;;2.00;;
16480;SDS011;44634;54.110;12.138;2023-03-14T05:47:59;1.90;;;1.77;;
16480;SDS011;44634;54.110;12.138;2023-03-14T05:50:29;1.90;;;1.70;;
16480;SDS011;44634;54.110;12.138;2023-03-14T05:52:56;1.97;;;1.87;;
16480;SDS011;44634;54.110;12.138;2023-03-14T05:55:24;4.33;;;2.50;;
16480;SDS011;44634;54.110;12.138;2023-03-14T05:57:52;1.73;;;1.63;;
16480;SDS011;44634;54.110;12.138;2023-03-14T06:00:21;2.90;;;1.60;;
16480;SDS011;44634;54.110;12.138;2023-03-14T06:02:49;3.87;;;1.83;;
16480;SDS011;44634;54.110;12.138;2023-03-14T06:05:17;4.47;;;1.90;;
16480;SDS011;44634;54.110;12.138;2023-03-14T06:07:46;2.90;;;1.97;;
16480;SDS011;44634;54.110;12.138;2023-03-14T06:10:14;2.03;;;1.80;;
16480;SDS011;44634;54.110;12.138;2023-03-14T06:12:42;3.00;;;1.50;;
16480;SDS011;44634;54.110;12.138;2023-03-14T06:15:10;2.03;;;1.93;;
16480;SDS011;44634;54.110;12.138;2023-03-14T06:17:38;2.83;;;2.17;;
16480;SDS011;44634;54.110;12.138;2023-03-14T06:20:06;6.60;;;1.90;;
16480;SDS011;44634;54.110;12.138;2023-03-14T06:22:34;2.83;;;1.70;;
16480;SDS011;44634;54.110;12.138;2023-03-14T06:25:04;2.03;;;1.90;;
16480;SDS011;44634;54.110;12.138;2023-03-14T06:27:32;3.27;;;1.60;;
16480;SDS011;44634;54.110;12.138;2023-03-14T06:30:00;2.67;;;1.53;;
16480;SDS011;44634;54.110;12.138;2023-03-14T06:32:28;3.60;;;1.67;;
16480;SDS011;44634;54.110;12.138;2023-03-14T06:34:56;3.17;;;1.93;;
16480;SDS011;44634;54.110;12.138;2023-03-14T06:37:27;2.93;;;2.03;;
16480;SDS011;44634;54.110;12.138;2023-03-14T06:39:55;2.93;;;1.70;;
16480;SDS011;44634;54.110;12.138;2023-03-14T06:42:24;3.13;;;1.90;;
16480;SDS011;44634;54.110;12.138;2023-03-14T06:44:52;1.70;;;1.60;;
16480;SDS011;44634;54.110;12.138;2023-03-14T06:47:20;3.13;;;2.03;;
16480;SDS011;44634;54.110;12.138;2023-03-14T06:49:47;2.20;;;1.77;;
16480;SDS011;44634;54.110;12.138;2023-03-14T06:52:16;1.50;;;1.47;;
16480;SDS011;44634;54.110;12.138;2023-03-14T06:54:44;2.27;;;1.80;;
16480;SDS011;44634;54.110;12.138;2023-03-14T06:57:12;3.17;;;1.90;;
16480;SDS011;44634;54.110;12.138;2023-03-14T06:59:41;3.43;;;2.20;;
16480;SDS011;44634;54.110;12.138;2023-03-14T07:02:10;3.40;;;1.50;;
16480;SDS011;44634;54.110;12.138;2023-03-14T07:04:38;2.03;;;1.57;;
16480;SDS011;44634;54.110;12.138;2023-03-14T07:07:06;2.63;;;1.97;;
16480;SDS011;44634;54.110;12.138;2023-03-14T07:09:34;2.23;;;1.90;;
16480;SDS011;44634;54.110;12.138;2023-03-14T07:12:02;1.97;;;1.83;;
16480;SDS011;44634;54.110;12.138;2023-03-14T07:14:31;2.87;;;1.87;;
16480;SDS011;44634;54.110;12.138;2023-03-14T07:17:00;3.03;;;1.67;;
16480;SDS011;44634;54.110;12.138;2023-03-14T07:19:27;1.97;;;1.70;;
16480;SDS011;44634;54.110;12.138;2023-03-14T07:21:55;1.70;;;1.53;;
16480;SDS011;44634;54.110;12.138;2023-03-14T07:24:23;3.10;;;1.20;;
16480;SDS011;44634;54.110;12.138;2023-03-14T07:26:51;1.33;;;1.27;;
16480;SDS011;44634;54.110;12.138;2023-03-14T07:29:19;1.87;;;1.10;;
16480;SDS011;44634;54.110;12.138;2023-03-14T07:31:47;1.60;;;1.50;;
16480;SDS011;44634;54.110;12.138;2023-03-14T07:34:18;1.70;;;1.60;;
16480;SDS011;44634;54.110;12.138;2023-03-14T07:36:46;4.17;;;1.60;;
16480;SDS011;44634;54.110;12.138;2023-03-14T07:39:14;2.60;;;1.70;;
16480;SDS011;44634;54.110;12.138;2023-03-14T07:41:42;1.37;;;1.27;;
16480;SDS011;44634;54.110;12.138;2023-03-14T07:44:10;1.70;;;1.57;;
16480;SDS011;44634;54.110;12.138;2023-03-14T07:46:38;1.97;;;1.40;;
16480;SDS011;44634;54.110;12.138;2023-03-14T07:49:06;2.57;;;1.70;;
16480;SDS011;44634;54.110;12.138;2023-03-14T07:51:35;1.70;;;1.50;;
16480;SDS011;44634;54.110;12.138;2023-03-14T07:54:03;1.30;;;1.20;;
16480;SDS011;44634;54.110;12.138;2023-03-14T07:56:30;1.67;;;1.00;;
16480;SDS011;44634;54.110;12.138;2023-03-14T07:58:58;2.30;;;1.40;;
16480;SDS011;44634;54.110;12.138;2023-03-14T08:01:26;1.27;;;1.27;;
16480;SDS011;44634;54.110;12.138;2023-03-14T08:03:54;3.40;;;1.43;;
16480;SDS011;44634;54.110;12.138;2023-03-14T08:06:22;1.03;;;1.00;;
16480;SDS011;44634;54.110;12.138;2023-03-14T08:08:51;1.40;;;1.30;;
16480;SDS011;44634;54.110;12.138;2023-03-14T08:11:18;2.33;;;1.20;;
16480;SDS011;44634;54.110;12.138;2023-03-14T08:13:46;4.83;;;1.63;;
16480;SDS011;44634;54.110;12.138;2023-03-14T08:16:16;2.13;;;1.40;;
16480;SDS011;44634;54.110;12.138;2023-03-14T08:18:44;1.57;;;1.47;;
16480;SDS011;44634;54.110;12.138;2023-03-14T08:21:13;1.73;;;1.40;;
16480;SDS011;44634;54.110;12.138;2023-03-14T08:23:41;3.40;;;1.73;;
16480;SDS011;44634;54.110;12.138;2023-03-14T08:26:10;2.23;;;1.47;;
16480;SDS011;44634;54.110;12.138;2023-03-14T08:28:38;2.40;;;1.67;;
16480;SDS011;44634;54.110;12.138;2023-03-14T08:31:06;2.07;;;1.40;;
16480;SDS011;44634;54.110;12.138;2023-03-14T08:33:34;1.67;;;1.50;;
16480;SDS011;44634;54.110;12.138;2023-03-14T08:36:02;1.60;;;1.50;;
16480;SDS011;44634;54.110;12.138;2023-03-14T08:38:30;4.27;;;1.67;;
16480;SDS011;44634;54.110;12.138;2023-03-14T08:40:58;3.93;;;1.60;;
16480;SDS011;44634;54.110;12.138;2023-03-14T08:43:28;1.90;;;1.60;;
16480;SDS011;44634;54.110;12.138;2023-03-14T08:45:57;1.73;;;1.17;;
16480;SDS011;44634;54.110;12.138;2023-03-14T08:48:25;2.63;;;1.37;;
16480;SDS011;44634;54.110;12.138;2023-03-14T08:50:53;1.47;;;1.47;;
16480;SDS011;44634;54.110;12.138;2023-03-14T08:53:21;4.20;;;1.63;;
16480;SDS011;44634;54.110;12.138;2023-03-14T08:55:52;2.07;;;1.43;;
16480;SDS011;44634;54.110;12.138;2023-03-14T08:58:20;1.53;;;1.43;;
16480;SDS011;44634;54.110;12.138;2023-03-14T09:00:50;1.60;;;1.50;;
16480;SDS011;44634;54.110;12.138;2023-03-14T09:03:18;1.10;;;1.10;;
16480;SDS011;44634;54.110;12.138;2023-03-14T09:05:46;1.57;;;1.20;;
16480;SDS011;44634;54.110;12.138;2023-03-14T09:08:13;3.90;;;1.37;;
16480;SDS011;44634;54.110;12.138;2023-03-14T09:10:41;2.20;;;1.43;;
16480;SDS011;44634;54.110;12.138;2023-03-14T09:13:09;1.40;;;1.40;;
16480;SDS011;44634;54.110;12.138;2023-03-14T09:15:37;2.80;;;1.47;;
16480;SDS011;44634;54.110;12.138;2023-03-14T09:18:06;2.67;;;1.50;;
16480;SDS011;44634;54.110;12.138;2023-03-14T09:20:34;1.20;;;1.10;;
16480;SDS011;44634;54.110;12.138;2023-03-14T09:23:02;1.83;;;1.50;;
16480;SDS011;44634;54.110;12.138;2023-03-14T09:25:30;1.40;;;1.40;;
16480;SDS011;44634;54.110;12.138;2023-03-14T09:27:57;1.50;;;1.40;;
16480;SDS011;44634;54.110;12.138;2023-03-14T09:30:25;2.30;;;1.30;;
16480;SDS011;44634;54.110;12.138;2023-03-14T09:32:53;1.30;;;1.20;;
16480;SDS011;44634;54.110;12.138;2023-03-14T09:35:22;4.63;;;1.90;;
16480;SDS011;44634;54.110;12.138;2023-03-14T09:37:50;1.60;;;1.40;;
16480;SDS011;44634;54.110;12.138;2023-03-14T09:40:19;1.30;;;1.17;;
16480;SDS011;44634;54.110;12.138;2023-03-14T09:42:47;4.63;;;1.37;;
16480;SDS011;44634;54.110;12.138;2023-03-14T09:45:19;2.60;;;1.20;;
16480;SDS011;44634;54.110;12.138;2023-03-14T09:47:52;1.70;;;1.60;;
16480;SDS011;44634;54.110;12.138;2023-03-14T09:50:27;2.80;;;1.40;;
16480;SDS011;44634;54.110;12.138;2023-03-14T09:53:02;1.30;;;1.20;;
16480;SDS011;44634;54.110;12.138;2023-03-14T09:55:32;2.00;;;1.50;;
16480;SDS011;44634;54.110;12.138;2023-03-14T09:58:02;3.00;;;1.40;;
16480;SDS011;44634;54.110;12.138;2023-03-14T10:00:36;1.03;;;0.97;;
16480;SDS011;44634;54.110;12.138;2023-03-14T10:03:12;1.23;;;0.90;;
16480;SDS011;44634;54.110;12.138;2023-03-14T10:05:50;1.17;;;1.07;;
16480;SDS011;44634;54.110;12.138;2023-03-14T10:08:18;1.00;;;1.00;;
16480;SDS011;44634;54.110;12.138;2023-03-14T10:10:45;0.97;;;0.97;;
16480;SDS011;44634;54.110;12.138;2023-03-14T10:13:14;1.10;;;1.10;;
16480;SDS011;44634;54.110;12.138;2023-03-14T10:15:47;1.20;;;1.13;;
16480;SDS011;44634;54.110;12.138;2023-03-14T10:18:15;1.57;;;1.20;;
16480;SDS011;44634;54.110;12.138;2023-03-14T10:20:44;2.30;;;1.40;;
16480;SDS011;44634;54.110;12.138;2023-03-14T10:23:23;2.23;;;1.03;;
16480;SDS011;44634;54.110;12.138;2023-03-14T10:26:03;2.70;;;1.73;;
16480;SDS011;44634;54.110;12.138;2023-03-14T10:28:34;1.47;;;1.30;;
16480;SDS011;44634;54.110;12.138;2023-03-14T10:31:06;1.30;;;0.83;;
16480;SDS011;44634;54.110;12.138;2023-03-14T10:33:35;1.40;;;1.27;;
16480;SDS011;44634;54.110;12.138;2023-03-14T10:36:05;1.00;;;1.00;;
16480;SDS011;44634;54.110;12.138;2023-03-14T10:38:46;1.50;;;1.40;;
16480;SDS011;44634;54.110;12.138;2023-03-14T10:41:15;1.10;;;1.10;;
16480;SDS011;44634;54.110;12.138;2023-03-14T10:43:46;1.50;;;1.40;;
16480;SDS011;44634;54.110;12.138;2023-03-14T10:46:19;1.50;;;1.30;;
16480;SDS011;44634;54.110;12.138;2023-03-14T10:48:47;2.10;;;1.37;;
16480;SDS011;44634;54.110;12.138;2023-03-14T10:51:18;1.80;;;1.40;;
16480;SDS011;44634;54.110;12.138;2023-03-14T10:53:49;2.80;;;2.00;;
16480;SDS011;44634;54.110;12.138;2023-03-14T10:56:23;2.10;;;1.60;;
16480;SDS011;44634;54.110;12.138;2023-03-14T10:58:52;3.97;;;1.90;;
16480;SDS011;44634;54.110;12.138;2023-03-14T11:01:28;3.73;;;1.87;;
16480;SDS011;44634;54.110;12.138;2023-03-14T11:04:08;3.13;;;2.60;;
16480;SDS011;44634;54.110;12.138;2023-03-14T11:06:48;4.40;;;2.50;;
16480;SDS011;44634;54.110;12.138;2023-03-14T11:09:25;2.17;;;1.97;;
16480;SDS011;44634;54.110;12.138;2023-03-14T11:12:02;2.20;;;2.00;;
16480;SDS011;44634;54.110;12.138;2023-03-14T11:14:48;2.13;;;1.93;;
16480;SDS011;44634;54.110;12.138;2023-03-14T11:17:23;2.03;;;1.50;;
16480;SDS011;44634;54.110;12.138;2023-03-14T11:20:01;4.30;;;2.10;;
16480;SDS011;44634;54.110;12.138;2023-03-14T11:22:41;5.40;;;2.20;;
16480;SDS011;44634;54.110;12.138;2023-03-14T11:25:20;0.60;;;0.60;;
16480;SDS011;44634;54.110;12.138;2023-03-14T11:27:55;0.80;;;0.80;;
16480;SDS011;44634;54.110;12.138;2023-03-14T11:30:32;2.03;;;0.97;;
16480;SDS011;44634;54.110;12.138;2023-03-14T11:33:03;2.03;;;1.10;;
16480;SDS011;44634;54.110;12.138;2023-03-14T11:35:41;1.20;;;1.10;;
16480;SDS011;44634;54.110;12.138;2023-03-14T11:38:19;3.17;;;1.00;;
16480;SDS011;44634;54.110;12.138;2023-03-14T11:40:58;4.13;;;1.20;;
16480;SDS011;44634;54.110;12.138;2023-03-14T11:43:28;4.73;;;1.60;;
16480;SDS011;44634;54.110;12.138;2023-03-14T11:46:00;3.23;;;1.33;;
16480;SDS011;44634;54.110;12.138;2023-03-14T11:48:35;2.63;;;1.10;;
16480;SDS011;44634;54.110;12.138;2023-03-14T11:51:12;3.47;;;1.40;;
16480;SDS011;44634;54.110;12.138;2023-03-14T11:53:49;3.13;;;1.10;;
16480;SDS011;44634;54.110;12.138;2023-03-14T11:56:27;1.93;;;1.50;;
16480;SDS011;44634;54.110;12.138;2023-03-14T11:59:00;2.50;;;0.90;;
16480;SDS011;44634;54.110;12.138;2023-03-14T12:01:34;4.03;;;1.43;;
16480;SDS011;44634;54.110;12.138;2023-03-14T12:04:13;3.93;;;0.90;;
16480;SDS011;44634;54.110;12.138;2023-03-14T12:06:47;2.80;;;1.10;;
16480;SDS011;44634;54.110;12.138;2023-03-14T12:09:16;1.80;;;0.80;;
16480;SDS011;44634;54.110;12.138;2023-03-14T12:11:48;1.80;;;1.00;;
16480;SDS011;44634;54.110;12.138;2023-03-14T12:14:23;1.47;;;0.83;;
16480;SDS011;44634;54.110;12.138;2023-03-14T12:16:54;5.50;;;0.80;;
16480;SDS011;44634;54.110;12.138;2023-03-14T12:22:12;2.10;;;0.50;;
16480;SDS011;44634;54.110;12.138;2023-03-14T12:24:49;0.97;;;0.80;;
16480;SDS011;44634;54.110;12.138;2023-03-14T12:27:42;1.87;;;0.80;;
16480;SDS011;44634;54.110;12.138;2023-03-14T12:30:26;1.27;;;0.90;;
16480;SDS011;44634;54.110;12.138;2023-03-14T12:39:10;2.93;;;1.10;;
16480;SDS011;44634;54.110;12.138;2023-03-14T12:41:49;2.70;;;0.80;;
16480;SDS011;44634;54.110;12.138;2023-03-14T12:44:40;2.60;;;1.10;;
16480;SDS011;44634;54.110;12.138;2023-03-14T12:50:24;1.40;;;1.30;;
16480;SDS011;44634;54.110;12.138;2023-03-14T12:53:04;4.53;;;1.83;;
16480;SDS011;44634;54.110;12.138;2023-03-14T12:55:46;4.57;;;1.30;;
16480;SDS011;44634;54.110;12.138;2023-03-14T12:58:22;4.80;;;1.20;;
16480;SDS011;44634;54.110;12.138;2023-03-14T13:00:59;6.47;;;1.40;;
16480;SDS011;44634;54.110;12.138;2023-03-14T13:03:36;6.10;;;1.40;;
16480;SDS011;44634;54.110;12.138;2023-03-14T13:06:08;1.27;;;0.60;;
16480;SDS011;44634;54.110;12.138;2023-03-14T13:08:38;2.90;;;0.93;;
16480;SDS011;44634;54.110;12.138;2023-03-14T13:11:08;3.57;;;1.20;;
16480;SDS011;44634;54.110;12.138;2023-03-14T13:13:44;1.83;;;1.10;;
16480;SDS011;44634;54.110;12.138;2023-03-14T13:16:17;5.67;;;1.53;;
16480;SDS011;44634;54.110;12.138;2023-03-14T13:18:46;3.50;;;1.30;;
16480;SDS011;44634;54.110;12.138;2023-03-14T13:21:15;4.60;;;1.13;;
16480;SDS011;44634;54.110;12.138;2023-03-14T13:23:56;3.70;;;1.37;;
16480;SDS011;44634;54.110;12.138;2023-03-14T13:26:31;5.20;;;0.83;;
16480;SDS011;44634;54.110;12.138;2023-03-14T13:29:08;2.17;;;1.07;;
16480;SDS011;44634;54.110;12.138;2023-03-14T13:31:39;3.03;;;1.07;;
16480;SDS011;44634;54.110;12.138;2023-03-14T13:34:11;2.53;;;1.10;;
16480;SDS011;44634;54.110;12.138;2023-03-14T13:36:40;2.30;;;1.03;;
16480;SDS011;44634;54.110;12.138;2023-03-14T13:39:09;6.03;;;1.23;;
16480;SDS011;44634;54.110;12.138;2023-03-14T13:41:40;6.07;;;1.40;;
16480;SDS011;44634;54.110;12.138;2023-03-14T13:44:13;3.70;;;1.20;;
16480;SDS011;44634;54.110;12.138;2023-03-14T13:46:46;8.83;;;1.43;;
16480;SDS011;44634;54.110;12.138;2023-03-14T13:49:17;2.70;;;1.00;;
16480;SDS011;44634;54.110;12.138;2023-03-14T13:51:50;8.60;;;2.03;;
16480;SDS011;44634;54.110;12.138;2023-03-14T13:54:18;4.97;;;1.30;;
16480;SDS011;44634;54.110;12.138;2023-03-14T13:56:47;2.60;;;1.33;;
16480;SDS011;44634;54.110;12.138;2023-03-14T13:59:22;4.00;;;1.40;;
16480;SDS011;44634;54.110;12.138;2023-03-14T14:01:51;4.20;;;1.93;;
16480;SDS011;44634;54.110;12.138;2023-03-14T14:04:21;5.40;;;1.37;;
16480;SDS011;44634;54.110;12.138;2023-03-14T14:06:52;5.47;;;1.57;;
16480;SDS011;44634;54.110;12.138;2023-03-14T14:09:24;5.47;;;1.73;;
16480;SDS011;44634;54.110;12.138;2023-03-14T14:11:54;4.93;;;1.43;;
16480;SDS011;44634;54.110;12.138;2023-03-14T14:14:41;9.50;;;1.40;;
16480;SDS011;44634;54.110;12.138;2023-03-14T14:17:14;6.57;;;1.83;;
16480;SDS011;44634;54.110;12.138;2023-03-14T14:19:45;4.20;;;1.57;;
16480;SDS011;44634;54.110;12.138;2023-03-14T14:22:15;1.63;;;1.43;;
16480;SDS011;44634;54.110;12.138;2023-03-14T14:24:44;8.10;;;2.20;;
16480;SDS011;44634;54.110;12.138;2023-03-14T14:27:13;6.10;;;1.47;;
16480;SDS011;44634;54.110;12.138;2023-03-14T14:29:43;5.53;;;2.20;;
16480;SDS011;44634;54.110;12.138;2023-03-14T14:32:12;2.07;;;1.40;;
16480;SDS011;44634;54.110;12.138;2023-03-14T14:34:43;1.40;;;1.27;;
16480;SDS011;44634;54.110;12.138;2023-03-14T14:37:17;7.00;;;1.50;;
16480;SDS011;44634;54.110;12.138;2023-03-14T14:39:47;6.73;;;2.67;;
16480;SDS011;44634;54.110;12.138;2023-03-14T14:42:17;7.67;;;1.83;;
16480;SDS011;44634;54.110;12.138;2023-03-14T14:44:48;7.20;;;1.73;;
16480;SDS011;44634;54.110;12.138;2023-03-14T14:47:20;7.07;;;1.50;;
16480;SDS011;44634;54.110;12.138;2023-03-14T14:49:49;4.57;;;1.50;;
16480;SDS011;44634;54.110;12.138;2023-03-14T14:52:19;9.13;;;2.13;;
16480;SDS011;44634;54.110;12.138;2023-03-14T14:54:51;2.63;;;1.30;;
16480;SDS011;44634;54.110;12.138;2023-03-14T14:57:22;8.30;;;2.13;;
16480;SDS011;44634;54.110;12.138;2023-03-14T14:59:51;3.10;;;1.60;;
16480;SDS011;44634;54.110;12.138;2023-03-14T15:02:30;5.80;;;1.20;;
16480;SDS011;44634;54.110;12.138;2023-03-14T15:05:04;4.10;;;1.93;;
16480;SDS011;44634;54.110;12.138;2023-03-14T15:07:32;5.43;;;1.60;;